createdAt,value
2023-04-28T00:02:22.169Z,100069.44
2023-04-28T00:04:50.435Z,100069.62
2023-04-28T00:07:17.916Z,100076.66
2023-04-28T00:09:45.506Z,100060.38
2023-04-28T00:12:13.182Z,100069.16
2023-04-28T00:14:40.745Z,100063.84
2023-04-28T00:17:10.094Z,100070.16
2023-04-28T00:19:38.733Z,100073.31
2023-04-28T00:22:06.468Z,100071.09
2023-04-28T00:24:33.964Z,100070.22
2023-04-28T00:27:02.517Z,100058.31
2023-04-28T00:29:30.107Z,100060.56
2023-04-28T00:31:57.593Z,100051.56
2023-04-28T00:34:25.378Z,100061.16
2023-04-28T00:36:52.820Z,100067.13
2023-04-28T00:39:20.957Z,100064.34
2023-04-28T00:41:48.750Z,100069.16
2023-04-28T00:44:16.332Z,100068.19
2023-04-28T00:46:43.969Z,100068.69
2023-04-28T00:49:11.814Z,100067.00
2023-04-28T00:51:39.180Z,100075.78
2023-04-28T00:54:07.191Z,100073.09
2023-04-28T00:56:35.089Z,100077.59
2023-04-28T00:59:02.504Z,100068.47
2023-04-28T01:01:30.163Z,100075.53
2023-04-28T01:03:58.340Z,100082.41
2023-04-28T01:06:26.174Z,100088.41
2023-04-28T01:08:54.791Z,100086.81
2023-04-28T01:11:22.766Z,100081.34
2023-04-28T01:13:52.211Z,100080.63
2023-04-28T01:16:19.869Z,100084.59
2023-04-28T01:18:48.562Z,100088.66
2023-04-28T01:21:26.085Z,100088.22
2023-04-28T01:23:53.954Z,100083.06
2023-04-28T01:26:21.758Z,100080.56
2023-04-28T01:28:49.155Z,100080.03
2023-04-28T01:31:17.140Z,100084.03
2023-04-28T01:33:44.575Z,100085.91
2023-04-28T01:36:12.002Z,100080.22
2023-04-28T01:38:39.848Z,100076.94
2023-04-28T01:41:07.279Z,100063.78
2023-04-28T01:43:34.820Z,100069.44
2023-04-28T01:46:02.601Z,100077.28
2023-04-28T01:48:32.211Z,100073.53
2023-04-28T01:50:59.587Z,100074.53
2023-04-28T01:53:27.311Z,100073.25
2023-04-28T01:55:55.431Z,100065.47
2023-04-28T01:58:22.863Z,100067.97
2023-04-28T02:00:51.132Z,100075.13
2023-04-28T02:03:19.750Z,100071.06
2023-04-28T02:05:47.423Z,100084.72
2023-04-28T02:08:15.955Z,100078.59
2023-04-28T02:10:45.043Z,100080.38
2023-04-28T02:13:12.451Z,100068.34
2023-04-28T02:15:41.365Z,100076.09
2023-04-28T02:18:10.005Z,100080.13
2023-04-28T02:20:40.886Z,100081.34
2023-04-28T02:23:08.944Z,100079.66
2023-04-28T02:25:36.495Z,100075.56
2023-04-28T02:28:04.511Z,100085.28
2023-04-28T02:30:35.138Z,100090.44
2023-04-28T02:33:02.555Z,100089.62
2023-04-28T02:35:30.372Z,100084.37
2023-04-28T02:37:58.487Z,100087.44
2023-04-28T02:40:25.847Z,100082.88
2023-04-28T02:42:53.510Z,100085.09
2023-04-28T02:45:21.295Z,100083.66
2023-04-28T02:47:48.722Z,100077.91
2023-04-28T02:50:17.280Z,100086.84
2023-04-28T02:52:44.933Z,100090.84
2023-04-28T02:55:12.394Z,100083.38
2023-04-28T02:57:40.279Z,100078.03
2023-04-28T03:00:08.496Z,100078.69
2023-04-28T03:02:36.859Z,100084.94
2023-04-28T03:05:04.801Z,100094.66
2023-04-28T03:07:32.400Z,100098.25
2023-04-28T03:09:59.735Z,100095.13
2023-04-28T03:12:27.391Z,100089.38
2023-04-28T03:14:54.818Z,100084.03
2023-04-28T03:17:22.213Z,100091.53
2023-04-28T03:19:49.929Z,100095.38
2023-04-28T03:22:17.407Z,100095.41
2023-04-28T03:24:44.989Z,100087.59
2023-04-28T03:27:12.783Z,100088.00
2023-04-28T03:29:40.171Z,100085.47
2023-04-28T03:32:08.481Z,100093.31
2023-04-28T03:34:36.844Z,100085.81
2023-04-28T03:37:04.520Z,100086.75
2023-04-28T03:39:31.978Z,100091.34
2023-04-28T03:41:59.716Z,100091.22
2023-04-28T03:44:29.607Z,100094.94
2023-04-28T03:46:57.233Z,100086.38
2023-04-28T03:49:24.946Z,100089.13
2023-04-28T03:51:52.389Z,100092.09
2023-04-28T03:54:20.524Z,100095.03
2023-04-28T03:56:48.386Z,100095.47
2023-04-28T03:59:16.430Z,100094.56
2023-04-28T04:01:43.865Z,100095.34
2023-04-28T04:04:11.831Z,100103.97
2023-04-28T04:06:39.375Z,100098.13
2023-04-28T04:09:07.084Z,100108.78
2023-04-28T04:11:34.795Z,100113.03
2023-04-28T04:14:02.677Z,100109.22
2023-04-28T04:16:30.542Z,100108.09
2023-04-28T04:18:59.084Z,100109.28
2023-04-28T04:21:27.930Z,100112.09
2023-04-28T04:23:55.951Z,100107.06
2023-04-28T04:26:23.708Z,100118.50
2023-04-28T04:28:51.553Z,100109.31
2023-04-28T04:31:22.736Z,100120.12
2023-04-28T04:33:51.917Z,100117.56
2023-04-28T04:36:19.674Z,100105.50
2023-04-28T04:38:47.130Z,100105.81
2023-04-28T04:41:16.115Z,100108.72
2023-04-28T04:43:43.591Z,100106.22
2023-04-28T04:46:11.122Z,100115.16
2023-04-28T04:48:39.306Z,100116.66
2023-04-28T04:51:07.213Z,100107.03
2023-04-28T04:53:35.046Z,100117.69
2023-04-28T04:56:02.778Z,100118.59
2023-04-28T04:58:30.399Z,100116.38
2023-04-28T05:00:59.444Z,100119.97
2023-04-28T05:03:27.377Z,100123.47
2023-04-28T05:05:55.337Z,100120.47
2023-04-28T05:08:25.941Z,100122.56
2023-04-28T05:10:53.628Z,100117.94
2023-04-28T05:13:21.094Z,100125.06
2023-04-28T05:15:49.739Z,100117.38
2023-04-28T05:18:20.735Z,100114.13
2023-04-28T05:20:48.545Z,100116.75
2023-04-28T05:23:16.801Z,100116.13
2023-04-28T05:25:44.580Z,100110.81
2023-04-28T05:28:12.143Z,100121.03
2023-04-28T05:30:43.421Z,100122.97
2023-04-28T05:33:11.706Z,100127.47
2023-04-28T05:35:39.695Z,100123.69
2023-04-28T05:38:07.164Z,100128.25
2023-04-28T05:40:34.897Z,100119.72
2023-04-28T05:43:02.294Z,100120.34
2023-04-28T05:45:29.985Z,100126.47
2023-04-28T05:47:58.365Z,100130.38
2023-04-28T05:50:26.431Z,100128.00
2023-04-28T05:52:54.193Z,100131.47
2023-04-28T05:55:22.215Z,100127.72
2023-04-28T05:57:53.415Z,100130.75
2023-04-28T06:00:22.254Z,100133.41
2023-04-28T06:02:50.395Z,100130.84
2023-04-28T06:05:18.231Z,100139.00
2023-04-28T06:07:47.734Z,100132.00
2023-04-28T06:10:16.922Z,100137.34
2023-04-28T06:12:44.401Z,100143.22
2023-04-28T06:15:11.833Z,100144.78
2023-04-28T06:17:39.817Z,100139.47
2023-04-28T06:20:07.815Z,100141.19
2023-04-28T06:22:35.338Z,100137.00
2023-04-28T06:25:03.032Z,100137.09
2023-04-28T06:27:32.875Z,100138.97
2023-04-28T06:30:00.375Z,100141.38
2023-04-28T06:32:28.261Z,100142.56
2023-04-28T06:34:57.805Z,100145.25
2023-04-28T06:37:26.822Z,100143.25
2023-04-28T06:39:54.535Z,100146.22
2023-04-28T06:42:21.974Z,100137.06
2023-04-28T06:44:50.584Z,100139.34
2023-04-28T06:47:18.251Z,100148.28
2023-04-28T06:49:47.402Z,100149.22
2023-04-28T06:52:14.888Z,100145.34
2023-04-28T06:54:42.580Z,100150.22
2023-04-28T06:57:10.121Z,100151.69
2023-04-28T06:59:38.265Z,100145.00
2023-04-28T07:02:05.988Z,100140.22
2023-04-28T07:04:33.368Z,100140.88
2023-04-28T07:07:00.824Z,100136.78
2023-04-28T07:09:29.443Z,100138.44
2023-04-28T07:11:58.352Z,100136.75
2023-04-28T07:14:26.172Z,100142.41
2023-04-28T07:16:53.923Z,100137.84
2023-04-28T07:19:21.351Z,100138.13
2023-04-28T07:21:48.782Z,100137.53
2023-04-28T07:24:16.716Z,100134.69
2023-04-28T07:26:44.246Z,100131.78
2023-04-28T07:29:13.524Z,100132.00
2023-04-28T07:31:41.268Z,100128.97
2023-04-28T07:34:08.716Z,100130.44
2023-04-28T07:36:36.249Z,100121.50
2023-04-28T07:39:04.025Z,100125.34
2023-04-28T07:41:36.576Z,100136.47
2023-04-28T07:44:05.900Z,100126.56
2023-04-28T07:46:33.463Z,100123.00
2023-04-28T07:49:01.134Z,100122.06
2023-04-28T07:51:28.966Z,100115.63
2023-04-28T07:53:57.081Z,100120.84
2023-04-28T07:56:25.872Z,100117.59
2023-04-28T07:58:53.566Z,100104.03
2023-04-28T08:01:21.020Z,100097.25
2023-04-28T08:03:48.905Z,100098.78
2023-04-28T08:06:16.557Z,100089.69
2023-04-28T08:08:43.920Z,100100.91
2023-04-28T08:11:11.747Z,100097.28
2023-04-28T08:13:39.151Z,100079.47
2023-04-28T08:16:06.826Z,100080.91
2023-04-28T08:18:34.886Z,100075.75
2023-04-28T08:21:02.315Z,100076.78
2023-04-28T08:23:31.942Z,100076.12
2023-04-28T08:25:59.642Z,100076.59
2023-04-28T08:28:27.520Z,100078.25
2023-04-28T08:30:55.608Z,100074.91
2023-04-28T08:33:24.145Z,100071.63
2023-04-28T08:35:51.595Z,100067.72
2023-04-28T08:38:19.067Z,100067.16
2023-04-28T08:40:47.131Z,100072.06
2023-04-28T08:43:15.136Z,100066.47
2023-04-28T08:45:43.290Z,100058.97
2023-04-28T08:48:22.094Z,100055.69
2023-04-28T08:50:54.573Z,100059.69
2023-04-28T08:53:25.237Z,100051.03
2023-04-28T08:55:56.971Z,100052.94
2023-04-28T08:58:25.698Z,100055.09
2023-04-28T09:00:53.756Z,100051.72
2023-04-28T09:03:22.041Z,100050.97
2023-04-28T09:05:50.085Z,100056.41
2023-04-28T09:08:18.821Z,100044.81
2023-04-28T09:10:46.354Z,100045.31
2023-04-28T09:13:25.608Z,100057.28
2023-04-28T09:15:59.668Z,100048.69
2023-04-28T09:18:27.441Z,100052.09
2023-04-28T09:21:03.402Z,100054.50
2023-04-28T09:23:31.133Z,100053.72
2023-04-28T09:26:07.517Z,100050.28
2023-04-28T09:28:36.286Z,100058.84
2023-04-28T09:31:04.174Z,100058.22
2023-04-28T09:33:31.630Z,100052.25
2023-04-28T09:35:59.377Z,100061.03
2023-04-28T09:38:26.918Z,100049.66
2023-04-28T09:41:01.088Z,100049.22
2023-04-28T09:43:32.910Z,100041.22
2023-04-28T09:46:02.275Z,100044.03
2023-04-28T09:48:35.120Z,100043.53
2023-04-28T09:51:04.458Z,100034.88
2023-04-28T09:53:33.208Z,100036.06
2023-04-28T09:56:02.210Z,100032.12
2023-04-28T09:58:30.728Z,100032.19
2023-04-28T10:01:00.028Z,100036.38
2023-04-28T10:03:31.690Z,100022.34
2023-04-28T10:05:59.712Z,100012.88
2023-04-28T10:08:27.980Z,100008.91
2023-04-28T10:10:56.865Z,100012.19
2023-04-28T10:13:24.773Z,100007.66
2023-04-28T10:15:56.009Z,100003.97
2023-04-28T10:18:24.843Z,99998.09
2023-04-28T10:21:00.393Z,100003.44
2023-04-28T10:23:35.196Z,99998.50
2023-04-28T10:26:03.242Z,99995.69
2023-04-28T10:28:30.898Z,99991.00
2023-04-28T10:31:23.358Z,99980.94
2023-04-28T10:33:51.242Z,99977.25
2023-04-28T10:36:51.119Z,99985.59
2023-04-28T10:39:18.875Z,99978.72
2023-04-28T10:41:47.744Z,99979.44
2023-04-28T10:44:44.531Z,99969.19
2023-04-28T10:47:12.271Z,99960.00
2023-04-28T10:49:55.449Z,99969.75
2023-04-28T10:52:38.791Z,99955.87
2023-04-28T10:55:37.506Z,99949.69
2023-04-28T10:58:17.556Z,99959.31
2023-04-28T11:00:48.441Z,99943.38
2023-04-28T11:04:06.127Z,99942.97
2023-04-28T11:06:40.077Z,99941.56
2023-04-28T11:09:19.949Z,99942.16
2023-04-28T11:12:03.718Z,99942.81
2023-04-28T11:14:32.146Z,99934.13
2023-04-28T11:17:02.789Z,99932.87
2023-04-28T11:19:33.974Z,99923.28
2023-04-28T11:22:04.793Z,99921.91
2023-04-28T11:24:32.383Z,99913.19
2023-04-28T11:27:00.216Z,99925.75
2023-04-28T11:29:38.321Z,99925.81
2023-04-28T11:32:08.310Z,99926.81
2023-04-28T11:34:37.344Z,99927.53
2023-04-28T11:37:07.213Z,99920.94
2023-04-28T11:39:34.946Z,99919.41
2023-04-28T11:42:09.780Z,99916.47
2023-04-28T11:44:37.231Z,99910.44
2023-04-28T11:47:06.315Z,99908.19
2023-04-28T11:49:45.146Z,99907.06
2023-04-28T11:52:13.775Z,99902.25
2023-04-28T11:54:44.093Z,99901.78
2023-04-28T11:57:19.528Z,99896.31
2023-04-28T11:59:47.854Z,99889.63
2023-04-28T12:02:17.762Z,99894.00
2023-04-28T12:04:45.675Z,99893.16
2023-04-28T12:07:17.952Z,99899.16
2023-04-28T12:09:48.781Z,99890.97
2023-04-28T12:12:39.951Z,99891.59
2023-04-28T12:15:09.625Z,99886.37
2023-04-28T12:17:39.271Z,99883.00
2023-04-28T12:20:08.662Z,99864.44
2023-04-28T12:22:47.530Z,99872.19
2023-04-28T12:25:17.337Z,99876.72
2023-04-28T12:28:04.858Z,99874.75
2023-04-28T12:30:34.134Z,99874.22
2023-04-28T12:33:01.940Z,99863.69
2023-04-28T12:35:29.700Z,99857.56
2023-04-28T12:37:58.663Z,99865.69
2023-04-28T12:40:27.233Z,99854.81
2023-04-28T12:42:54.875Z,99839.34
2023-04-28T12:45:22.310Z,99838.63
2023-04-28T12:47:50.083Z,99831.84
2023-04-28T12:50:17.576Z,99820.50
2023-04-28T12:52:45.077Z,99818.47
2023-04-28T12:55:13.002Z,99817.00
2023-04-28T12:57:40.451Z,99797.81
2023-04-28T13:00:08.812Z,99791.38
2023-04-28T13:02:36.931Z,99782.06
2023-04-28T13:05:04.665Z,99771.31
2023-04-28T13:07:33.718Z,99771.28
2023-04-28T13:10:01.437Z,99771.59
2023-04-28T13:12:28.850Z,99774.88
2023-04-28T13:14:56.287Z,99774.94
2023-04-28T13:17:23.981Z,99776.34
2023-04-28T13:19:51.610Z,99778.88
2023-04-28T13:22:19.485Z,99768.56
2023-04-28T13:24:47.901Z,99763.34
2023-04-28T13:27:15.595Z,99762.56
2023-04-28T13:29:43.029Z,99763.09
2023-04-28T13:32:11.024Z,99753.09
2023-04-28T13:34:38.538Z,99765.97
2023-04-28T13:37:06.120Z,99766.38
2023-04-28T13:39:33.899Z,99769.03
2023-04-28T13:42:01.763Z,99764.59
2023-04-28T13:44:29.212Z,99764.53
2023-04-28T13:46:57.216Z,99761.84
2023-04-28T13:49:25.020Z,99758.59
2023-04-28T13:51:52.459Z,99746.03
2023-04-28T13:54:21.312Z,99745.19
2023-04-28T13:56:48.877Z,99745.16
2023-04-28T13:59:16.329Z,99739.09
2023-04-28T14:01:44.168Z,99727.94
2023-04-28T14:04:12.277Z,99706.00
2023-04-28T14:06:39.928Z,99714.03
2023-04-28T14:09:07.376Z,99714.03
2023-04-28T14:11:35.136Z,99723.47
2023-04-28T14:14:02.858Z,99715.72
2023-04-28T14:16:30.677Z,99705.53
2023-04-28T14:18:58.959Z,99704.75
2023-04-28T14:21:26.689Z,99703.59
2023-04-28T14:23:54.110Z,99707.88
2023-04-28T14:26:24.104Z,99714.34
2023-04-28T14:28:51.540Z,99712.59
2023-04-28T14:31:19.667Z,99706.59
2023-04-28T14:33:47.659Z,99702.66
2023-04-28T14:36:15.231Z,99692.31
2023-04-28T14:38:42.769Z,99693.66
2023-04-28T14:41:11.535Z,99688.59
2023-04-28T14:43:39.042Z,99693.09
2023-04-28T14:46:06.488Z,99690.97
2023-04-28T14:48:34.635Z,99691.06
2023-04-28T14:51:02.426Z,99691.50
2023-04-28T14:53:30.394Z,99684.16
2023-04-28T14:56:07.536Z,99684.34
2023-04-28T14:58:45.278Z,99684.03
2023-04-28T15:01:13.349Z,99688.06
2023-04-28T15:03:41.076Z,99682.91
2023-04-28T15:06:08.725Z,99675.38
2023-04-28T15:08:36.858Z,99677.03
2023-04-28T15:11:04.269Z,99673.66
2023-04-28T15:13:32.293Z,99671.25
2023-04-28T15:16:00.455Z,99671.66
2023-04-28T15:18:28.092Z,99674.34
2023-04-28T15:20:56.271Z,99671.59
2023-04-28T15:23:23.968Z,99658.25
2023-04-28T15:25:53.592Z,99664.00
2023-04-28T15:28:22.104Z,99661.50
2023-04-28T15:30:49.826Z,99661.28
2023-04-28T15:33:17.786Z,99654.34
2023-04-28T15:35:45.551Z,99666.16
2023-04-28T15:38:13.555Z,99664.97
2023-04-28T15:40:41.670Z,99661.31
2023-04-28T15:43:09.635Z,99663.34
2023-04-28T15:45:38.815Z,99657.13
2023-04-28T15:48:06.613Z,99663.28
2023-04-28T15:50:34.753Z,99664.88
2023-04-28T15:53:03.335Z,99651.22
2023-04-28T15:55:30.967Z,99645.53
2023-04-28T15:57:58.463Z,99645.13
2023-04-28T16:00:26.449Z,99644.50
2023-04-28T16:02:54.252Z,99636.38
2023-04-28T16:05:21.848Z,99640.59
2023-04-28T16:07:49.937Z,99641.13
2023-04-28T16:10:17.829Z,99635.03
2023-04-28T16:12:45.357Z,99627.91
2023-04-28T16:15:13.575Z,99636.88
2023-04-28T16:17:41.729Z,99632.47
2023-04-28T16:20:10.252Z,99626.22
2023-04-28T16:22:38.797Z,99611.97
2023-04-28T16:25:07.219Z,99614.69
2023-04-28T16:27:35.581Z,99614.66
2023-04-28T16:30:04.991Z,99610.25
2023-04-28T16:32:33.679Z,99603.97
2023-04-28T16:35:01.249Z,99598.06
2023-04-28T16:37:28.975Z,99589.97
2023-04-28T16:39:56.716Z,99594.81
2023-04-28T16:42:24.109Z,99595.03
2023-04-28T16:44:53.008Z,99587.41
2023-04-28T16:47:21.366Z,99583.84
2023-04-28T16:49:48.992Z,99581.09
2023-04-28T16:52:16.792Z,99577.72
2023-04-28T16:54:44.542Z,99573.28
2023-04-28T16:57:11.950Z,99571.50
2023-04-28T16:59:39.562Z,99567.28
2023-04-28T17:02:07.950Z,99568.19
2023-04-28T17:04:36.328Z,99565.06
2023-04-28T17:07:05.276Z,99562.16
2023-04-28T17:09:33.393Z,99554.62
2023-04-28T17:12:01.153Z,99549.91
2023-04-28T17:14:28.668Z,99547.41
2023-04-28T17:16:56.714Z,99534.13
2023-04-28T17:19:24.145Z,99528.19
2023-04-28T17:21:52.845Z,99519.72
2023-04-28T17:24:20.650Z,99521.09
2023-04-28T17:26:48.074Z,99513.28
2023-04-28T17:29:15.578Z,99516.84
2023-04-28T17:31:43.541Z,99514.94
2023-04-28T17:34:11.144Z,99525.62
2023-04-28T17:36:38.614Z,99524.56
2023-04-28T17:39:06.298Z,99545.75
2023-04-28T17:41:33.685Z,99546.91
2023-04-28T17:44:01.514Z,99549.31
2023-04-28T17:46:29.284Z,99551.34
2023-04-28T17:48:56.852Z,99545.19
2023-04-28T17:51:24.227Z,99546.56
2023-04-28T17:53:51.970Z,99547.62
2023-04-28T17:56:19.607Z,99536.22
2023-04-28T17:58:47.478Z,99539.25
2023-04-28T18:01:15.276Z,99547.00
2023-04-28T18:03:43.294Z,99555.25
2023-04-28T18:06:11.307Z,99554.34
2023-04-28T18:08:40.102Z,99561.19
2023-04-28T18:11:09.987Z,99559.94
2023-04-28T18:13:37.493Z,99562.09
2023-04-28T18:16:05.239Z,99551.03
2023-04-28T18:18:35.342Z,99558.09
2023-04-28T18:21:03.327Z,99566.59
2023-04-28T18:23:30.764Z,99556.88
2023-04-28T18:25:58.451Z,99564.91
2023-04-28T18:28:26.105Z,99561.00
2023-04-28T18:30:53.545Z,99563.88
2023-04-28T18:33:23.626Z,99556.91
2023-04-28T18:36:05.448Z,99565.06
2023-04-28T18:38:35.517Z,99563.91
2023-04-28T18:41:15.743Z,99568.41
2023-04-28T18:43:44.297Z,99561.50
2023-04-28T18:46:11.983Z,99557.66
2023-04-28T18:48:40.167Z,99566.97
2023-04-28T18:51:08.277Z,99563.03
2023-04-28T18:53:36.268Z,99560.16
2023-04-28T18:56:04.014Z,99559.31
2023-04-28T18:58:32.203Z,99558.63
2023-04-28T19:00:59.837Z,99557.63
2023-04-28T19:03:28.205Z,99555.09
2023-04-28T19:05:56.104Z,99559.47
2023-04-28T19:08:23.732Z,99562.19
2023-04-28T19:10:51.378Z,99563.19
2023-04-28T19:13:19.115Z,99559.81
2023-04-28T19:15:46.674Z,99569.81
2023-04-28T19:18:14.099Z,99567.78
2023-04-28T19:20:42.085Z,99575.38
2023-04-28T19:23:09.796Z,99580.16
2023-04-28T19:25:37.346Z,99584.22
2023-04-28T19:28:06.280Z,99572.19
2023-04-28T19:30:34.002Z,99569.66
2023-04-28T19:33:01.649Z,99578.12
2023-04-28T19:35:29.387Z,99577.25
2023-04-28T19:37:56.979Z,99584.22
2023-04-28T19:40:26.316Z,99585.91
2023-04-28T19:42:55.492Z,99585.25
2023-04-28T19:45:23.349Z,99595.06
2023-04-28T19:47:52.391Z,99580.97
2023-04-28T19:50:20.212Z,99578.62
2023-04-28T19:52:48.081Z,99585.91
2023-04-28T19:55:18.584Z,99581.31
2023-04-28T19:57:46.652Z,99575.06
2023-04-28T20:00:15.099Z,99568.28
2023-04-28T20:02:44.644Z,99566.09
2023-04-28T20:05:12.901Z,99546.22
2023-04-28T20:07:41.834Z,99549.19
2023-04-28T20:10:09.720Z,99543.66
2023-04-28T20:12:37.174Z,99528.53
2023-04-28T20:15:05.503Z,99537.78
2023-04-28T20:17:33.233Z,99530.97
2023-04-28T20:20:00.862Z,99532.28
2023-04-28T20:22:28.593Z,99535.19
2023-04-28T20:24:58.489Z,99526.69
2023-04-28T20:27:27.050Z,99531.47
2023-04-28T20:29:54.634Z,99522.94
2023-04-28T20:32:22.482Z,99525.06
2023-04-28T20:34:50.026Z,99517.47
2023-04-28T20:37:17.482Z,99519.38
2023-04-28T20:39:45.253Z,99511.13
2023-04-28T20:42:12.893Z,99513.09
2023-04-28T20:44:41.032Z,99521.22
2023-04-28T20:47:08.731Z,99522.28
2023-04-28T20:49:36.400Z,99523.38
2023-04-28T20:52:08.268Z,99520.75
2023-04-28T20:54:36.471Z,99522.13
2023-04-28T20:57:04.845Z,99530.16
2023-04-28T20:59:33.050Z,99536.69
2023-04-28T21:02:00.976Z,99524.69
2023-04-28T21:04:28.628Z,99523.25
2023-04-28T21:06:56.497Z,99518.63
2023-04-28T21:09:25.342Z,99513.91
2023-04-28T21:11:53.008Z,99516.81
2023-04-28T21:14:20.765Z,99506.50
2023-04-28T21:16:48.473Z,99511.91
2023-04-28T21:19:16.092Z,99521.78
2023-04-28T21:21:43.454Z,99520.56
2023-04-28T21:24:11.152Z,99522.69
2023-04-28T21:26:38.579Z,99511.66
2023-04-28T21:29:08.116Z,99514.44
2023-04-28T21:31:36.059Z,99519.22
2023-04-28T21:34:03.607Z,99522.34
2023-04-28T21:36:31.001Z,99525.38
2023-04-28T21:38:58.759Z,99515.94
2023-04-28T21:41:26.276Z,99509.09
2023-04-28T21:43:53.709Z,99508.63
2023-04-28T21:46:21.584Z,99506.00
2023-04-28T21:48:49.163Z,99509.47
2023-04-28T21:51:16.816Z,99502.97
2023-04-28T21:53:44.518Z,99506.56
2023-04-28T21:56:12.017Z,99513.72
2023-04-28T21:58:39.492Z,99514.44
2023-04-28T22:01:07.483Z,99509.34
2023-04-28T22:03:36.171Z,99515.88
2023-04-28T22:06:03.888Z,99520.28
2023-04-28T22:08:31.818Z,99514.44
2023-04-28T22:11:00.813Z,99515.84
2023-04-28T22:13:28.206Z,99513.50
2023-04-28T22:15:56.406Z,99518.19
2023-04-28T22:18:24.123Z,99512.94
2023-04-28T22:20:51.521Z,99524.84
2023-04-28T22:23:18.882Z,99523.22
2023-04-28T22:25:47.078Z,99521.22
2023-04-28T22:28:15.416Z,99519.63
2023-04-28T22:30:42.849Z,99516.50
2023-04-28T22:33:10.484Z,99512.81
2023-04-28T22:35:37.967Z,99515.69
2023-04-28T22:38:05.438Z,99510.22
2023-04-28T22:40:33.144Z,99515.78
2023-04-28T22:43:00.646Z,99517.56
2023-04-28T22:45:28.765Z,99505.50
2023-04-28T22:47:56.984Z,99504.91
2023-04-28T22:50:25.121Z,99516.22
2023-04-28T22:52:52.824Z,99503.13
2023-04-28T22:55:20.604Z,99509.84
2023-04-28T22:57:48.036Z,99501.44
2023-04-28T23:00:16.149Z,99497.28
2023-04-28T23:02:44.999Z,99500.66
2023-04-28T23:05:12.773Z,99494.34
2023-04-28T23:07:40.376Z,99493.16
2023-04-28T23:10:08.532Z,99497.28
2023-04-28T23:12:36.132Z,99487.88
2023-04-28T23:15:03.749Z,99485.19
2023-04-28T23:17:31.528Z,99490.37
2023-04-28T23:19:58.926Z,99479.97
2023-04-28T23:22:26.410Z,99484.28
2023-04-28T23:24:54.095Z,99479.44
2023-04-28T23:27:21.544Z,99479.44
2023-04-28T23:29:49.200Z,99468.44
2023-04-28T23:32:17.038Z,99467.63
2023-04-28T23:34:44.407Z,99466.69
2023-04-28T23:37:12.119Z,99468.50
2023-04-28T23:39:39.765Z,99468.59
2023-04-28T23:42:07.454Z,99467.84
2023-04-28T23:44:35.278Z,99468.91
2023-04-28T23:47:02.965Z,99460.78
2023-04-28T23:49:30.391Z,99450.44
2023-04-28T23:51:57.811Z,99460.69
2023-04-28T23:54:25.586Z,99444.53
2023-04-28T23:56:52.981Z,99454.97
2023-04-28T23:59:20.372Z,99452.25
